Time;durP1;ratioP1;P1;durP2;ratioP2;P2;SDS_P1;SDS_P2;PMS_P1;PMS_P2;Temp;Humidity;BMP_temperature;BMP_pressure;BME280_temperature;BME280_humidity;BME280_pressure;Samples;Min_cycle;Max_cycle;Signal;HPM_P1;HPM_P2
2023/07/25 04:00:49;;;;;;;2.40;2.20;;;16.90;97.30;;;;;;5983760;23;20236;31
2023/07/25 04:03:29;;;;;;;2.70;2.53;;;17.00;97.30;;;;;;4907516;29;20480;-87
2023/07/25 04:06:59;;;;;;;3.63;3.40;;;17.00;97.30;;;;;;4909294;29;21049;-87
2023/07/25 04:09:41;;;;;;;2.80;2.50;;;17.00;97.30;;;;;;4880146;29;20432;-86
2023/07/25 04:12:10;;;;;;;1.50;1.40;;;17.00;97.30;;;;;;4899570;29;20493;-86
2023/07/25 04:15:01;;;;;;;3.20;1.83;;;16.90;97.30;;;;;;4910657;29;21034;-86
2023/07/25 04:17:50;;;;;;;2.07;1.93;;;16.90;97.30;;;;;;4910921;29;20428;-87
2023/07/25 04:20:39;;;;;;;2.07;1.30;;;16.90;97.30;;;;;;4915991;29;20431;-87
2023/07/25 04:23:30;;;;;;;1.53;1.50;;;16.90;97.30;;;;;;4912940;29;20519;-85
2023/07/25 04:26:08;;;;;;;1.63;1.27;;;16.90;97.30;;;;;;4894788;29;20579;-85
2023/07/25 04:28:38;;;;;;;2.40;1.53;;;16.90;97.30;;;;;;4913995;29;20425;-87
2023/07/25 04:31:11;;;;;;;3.53;1.80;;;16.90;97.30;;;;;;4914053;29;20507;-85
2023/07/25 04:33:39;;;;;;;1.77;1.67;;;16.90;97.30;;;;;;4910942;29;20417;-88
2023/07/25 04:36:08;;;;;;;1.63;1.60;;;16.90;97.30;;;;;;4904360;29;20429;-86
2023/07/25 04:38:41;;;;;;;1.40;1.30;;;16.90;97.30;;;;;;4910743;29;20433;-85
2023/07/25 04:41:06;;;;;;;1.87;1.80;;;16.90;97.30;;;;;;4909887;29;20492;-85
2023/07/25 04:43:32;;;;;;;2.80;2.10;;;16.90;97.30;;;;;;4913666;29;20428;-84
2023/07/25 04:45:57;;;;;;;5.80;2.37;;;16.80;97.30;;;;;;4910493;29;20691;-85
2023/07/25 04:48:23;;;;;;;3.00;1.90;;;16.80;97.30;;;;;;4910696;29;20203;-85
2023/07/25 04:50:48;;;;;;;1.97;1.70;;;16.80;97.30;;;;;;4896343;29;20215;-85
2023/07/25 04:53:14;;;;;;;3.67;2.13;;;16.80;97.30;;;;;;4902612;29;20453;-88
2023/07/25 04:55:39;;;;;;;3.43;1.93;;;16.80;97.30;;;;;;4905434;29;20246;-88
2023/07/25 04:58:05;;;;;;;1.30;1.20;;;16.80;97.30;;;;;;4912112;29;20181;-85
2023/07/25 05:00:30;;;;;;;3.93;1.63;;;16.80;97.30;;;;;;4895061;29;20189;-84
2023/07/25 05:02:56;;;;;;;1.80;1.70;;;16.80;97.30;;;;;;4903548;29;20296;-89
2023/07/25 05:05:21;;;;;;;2.83;1.60;;;16.80;97.30;;;;;;4902450;29;20585;-87
2023/07/25 05:07:47;;;;;;;1.37;1.27;;;16.80;97.30;;;;;;4906994;29;20198;-88
2023/07/25 05:10:12;;;;;;;3.33;1.80;;;16.80;97.30;;;;;;4916710;29;20228;-86
2023/07/25 05:12:38;;;;;;;1.83;1.73;;;16.90;97.30;;;;;;4913683;29;20204;-88
2023/07/25 05:15:04;;;;;;;1.30;1.20;;;16.90;97.30;;;;;;4901108;29;20193;-86
2023/07/25 05:17:32;;;;;;;2.93;2.37;;;16.90;97.30;;;;;;4911432;29;20252;-85
2023/07/25 05:20:01;;;;;;;2.80;1.20;;;16.90;97.30;;;;;;4914093;29;20931;-87
2023/07/25 05:22:32;;;;;;;2.70;2.20;;;16.90;97.30;;;;;;4913605;29;20449;-85
2023/07/25 05:25:10;;;;;;;1.73;1.63;;;16.90;97.30;;;;;;4913681;29;20472;-87
2023/07/25 05:27:41;;;;;;;1.30;1.20;;;16.90;97.30;;;;;;4910272;29;20452;-85
2023/07/25 05:30:10;;;;;;;1.27;1.07;;;16.90;97.30;;;;;;4906210;29;20433;-85
2023/07/25 05:32:42;;;;;;;2.57;2.37;;;16.90;97.30;;;;;;4908123;29;20461;-87
2023/07/25 05:35:10;;;;;;;2.10;1.60;;;16.90;97.30;;;;;;4909819;29;20443;-88
2023/07/25 05:38:01;;;;;;;;;;;;;;;;;;;;;
2023/07/25 05:40:29;;;;;;;1.90;1.80;;;16.90;97.30;;;;;;4905916;29;20614;-88
2023/07/25 05:42:57;;;;;;;1.60;1.50;;;16.80;97.30;;;;;;4904672;29;20516;-88
2023/07/25 05:45:32;;;;;;;3.63;2.73;;;16.90;97.30;;;;;;4910672;29;20457;-88
2023/07/25 05:47:57;;;;;;;3.63;1.63;;;16.90;97.30;;;;;;4914974;29;20440;-88
2023/07/25 05:50:29;;;;;;;1.20;1.10;;;16.90;97.30;;;;;;4908045;29;20690;-88
2023/07/25 05:53:07;;;;;;;2.60;2.17;;;16.90;97.30;;;;;;4906936;29;20191;-88
2023/07/25 05:55:50;;;;;;;4.80;2.20;;;16.90;97.30;;;;;;4900130;29;20512;-87
2023/07/25 05:58:19;;;;;;;1.50;1.40;;;17.00;97.30;;;;;;4907056;29;20983;-89
2023/07/25 06:00:48;;;;;;;2.60;2.00;;;17.00;97.30;;;;;;4903855;29;20545;-85
2023/07/25 06:03:17;;;;;;;2.37;2.17;;;17.00;97.30;;;;;;4898403;29;20834;-88
2023/07/25 06:05:43;;;;;;;6.87;2.13;;;17.00;97.30;;;;;;4922269;29;20472;-88
2023/07/25 06:08:09;;;;;;;2.70;2.27;;;17.10;97.30;;;;;;4909817;29;20523;-85
2023/07/25 06:10:50;;;;;;;4.80;2.20;;;17.10;97.30;;;;;;4900039;29;20187;-85
2023/07/25 06:13:20;;;;;;;2.20;1.60;;;17.10;97.30;;;;;;4907014;29;20716;-85
2023/07/25 06:15:47;;;;;;;2.33;2.13;;;17.10;97.30;;;;;;4900649;29;20461;-88
2023/07/25 06:18:15;;;;;;;2.57;1.83;;;17.10;97.30;;;;;;4911931;29;20461;-89
2023/07/25 06:20:41;;;;;;;2.00;1.47;;;17.10;97.30;;;;;;4917589;29;20527;-89
2023/07/25 06:23:11;;;;;;;2.03;1.90;;;17.20;97.30;;;;;;4915400;29;20873;-88
2023/07/25 06:25:40;;;;;;;1.57;1.47;;;17.20;97.30;;;;;;4931529;29;20216;-88
2023/07/25 06:28:06;;;;;;;3.57;2.50;;;17.20;97.30;;;;;;4920509;29;20875;-86
2023/07/25 06:30:32;;;;;;;1.30;1.30;;;17.20;97.30;;;;;;4919490;29;20504;-88
2023/07/25 06:32:57;;;;;;;2.40;2.23;;;17.30;97.30;;;;;;4915933;29;20628;-85
2023/07/25 06:35:23;;;;;;;4.30;2.53;;;17.30;97.30;;;;;;4920162;29;20439;-86
2023/07/25 06:37:49;;;;;;;2.57;1.43;;;17.20;97.30;;;;;;4915607;29;20188;-86
2023/07/25 06:40:14;;;;;;;1.50;1.40;;;17.30;97.30;;;;;;4913854;29;20693;-85
2023/07/25 06:42:40;;;;;;;6.73;2.30;;;17.30;97.30;;;;;;4917059;29;20208;-88
2023/07/25 06:45:07;;;;;;;1.63;1.53;;;17.30;97.30;;;;;;4914615;29;20268;-88
2023/07/25 06:47:32;;;;;;;2.60;2.17;;;17.30;97.30;;;;;;4931465;29;20643;-88
2023/07/25 06:49:59;;;;;;;2.93;2.33;;;17.30;97.30;;;;;;4914494;29;20425;-88
2023/07/25 06:52:25;;;;;;;2.23;2.03;;;17.30;97.30;;;;;;4917791;29;20295;-88
2023/07/25 06:54:50;;;;;;;1.30;1.20;;;17.30;97.30;;;;;;4914530;29;20516;-87
2023/07/25 06:57:32;;;;;;;2.40;1.27;;;17.30;97.30;;;;;;4925841;29;20193;-88
2023/07/25 07:00:22;;;;;;;2.03;1.83;;;17.30;97.30;;;;;;4911814;29;20236;-85
2023/07/25 07:03:01;;;;;;;11.40;1.60;;;17.40;97.30;;;;;;4912287;29;21018;-88
2023/07/25 07:06:00;;;;;;;2.70;2.50;;;17.40;97.30;;;;;;4909949;29;20457;-88
2023/07/25 07:08:32;;;;;;;1.73;1.50;;;17.50;97.30;;;;;;4911253;29;20435;-85
2023/07/25 07:11:00;;;;;;;1.97;1.50;;;17.50;97.30;;;;;;4911203;29;20758;-87
2023/07/25 07:13:31;;;;;;;1.43;1.33;;;17.60;97.30;;;;;;4923836;29;20421;-88
2023/07/25 07:16:00;;;;;;;1.93;1.67;;;17.70;97.30;;;;;;4910014;29;20472;-88
2023/07/25 07:18:29;;;;;;;2.13;2.00;;;17.70;97.30;;;;;;4899012;29;20429;-84
2023/07/25 07:21:01;;;;;;;2.60;1.77;;;17.70;97.30;;;;;;4908621;29;21014;-88
2023/07/25 07:23:30;;;;;;;1.33;1.27;;;17.70;97.30;;;;;;4915609;29;20962;-85
2023/07/25 07:26:01;;;;;;;1.33;1.23;;;17.70;97.30;;;;;;4912731;29;20468;-86
2023/07/25 07:28:30;;;;;;;2.20;1.83;;;17.70;97.30;;;;;;4913698;29;20456;-87
2023/07/25 07:33:52;;;;;;;1.40;1.30;;;17.70;97.30;;;;;;4912987;29;20446;-87
2023/07/25 07:36:20;;;;;;;1.63;1.60;;;17.80;97.30;;;;;;4918760;29;20432;-86
2023/07/25 07:39:11;;;;;;;4.60;2.93;;;17.80;97.30;;;;;;4907676;29;20975;-86
2023/07/25 07:45:09;;;;;;;10.80;1.00;;;17.80;97.30;;;;;;4905653;29;20460;-86
2023/07/25 07:47:36;;;;;;;1.43;1.40;;;17.80;97.30;;;;;;4907902;28;20568;-86
2023/07/25 07:50:02;;;;;;;1.23;1.13;;;17.90;97.30;;;;;;4915549;29;20515;-86
2023/07/25 07:52:28;;;;;;;1.60;1.57;;;17.90;97.30;;;;;;4909206;29;20473;-84
2023/07/25 07:54:53;;;;;;;1.00;0.97;;;18.00;97.30;;;;;;4923964;29;20188;-88
2023/07/25 07:57:19;;;;;;;4.20;2.47;;;18.00;97.30;;;;;;4923905;29;20191;-85
2023/07/25 07:59:45;;;;;;;2.50;1.43;;;18.00;97.30;;;;;;4918468;29;20223;-86
2023/07/25 08:02:10;;;;;;;3.60;1.87;;;18.00;97.30;;;;;;4917101;29;20236;-85
2023/07/25 08:04:36;;;;;;;1.03;0.97;;;18.00;97.30;;;;;;4909422;29;20289;-82
2023/07/25 08:07:01;;;;;;;1.83;1.73;;;18.10;97.30;;;;;;4907778;29;20193;-84
2023/07/25 08:09:27;;;;;;;1.10;1.03;;;18.10;97.30;;;;;;4912558;29;20192;-82
2023/07/25 08:11:52;;;;;;;1.50;1.40;;;18.10;97.30;;;;;;4910314;29;20678;-82
2023/07/25 08:14:18;;;;;;;1.30;1.20;;;18.10;97.30;;;;;;4903361;29;20797;-81
2023/07/25 08:16:43;;;;;;;1.30;1.20;;;18.10;97.30;;;;;;4897281;29;20185;-84
2023/07/25 08:19:09;;;;;;;1.40;1.30;;;18.10;97.30;;;;;;4914125;29;20662;-85
2023/07/25 08:21:35;;;;;;;1.77;1.50;;;18.10;97.30;;;;;;4917624;29;20709;-82
2023/07/25 08:24:00;;;;;;;4.33;2.17;;;18.10;97.30;;;;;;4919444;29;20698;-81
2023/07/25 08:26:26;;;;;;;2.10;1.80;;;18.10;97.30;;;;;;4918818;29;20173;-82
2023/07/25 08:28:51;;;;;;;2.97;2.73;;;18.10;97.30;;;;;;4916379;29;20183;-85
2023/07/25 08:31:17;;;;;;;3.40;2.20;;;18.10;97.30;;;;;;4913233;29;20208;-84
2023/07/25 08:34:28;;;;;;;1.23;1.13;;;18.10;97.30;;;;;;4912675;29;20177;-87
2023/07/25 08:36:58;;;;;;;1.77;1.63;;;18.10;97.30;;;;;;4914952;29;20280;-82
2023/07/25 08:39:24;;;;;;;3.23;2.50;;;18.20;97.30;;;;;;4916230;29;20520;-83
2023/07/25 08:41:53;;;;;;;1.50;1.40;;;18.20;97.30;;;;;;4918551;29;20597;-82
2023/07/25 08:44:23;;;;;;;1.43;1.20;;;18.20;97.30;;;;;;4914304;29;20691;-84
2023/07/25 08:46:51;;;;;;;1.30;1.30;;;18.20;97.30;;;;;;4916693;29;20429;-84
2023/07/25 08:49:20;;;;;;;4.10;1.83;;;18.20;97.30;;;;;;4914807;29;20442;-84
2023/07/25 08:51:49;;;;;;;4.37;1.73;;;18.20;97.30;;;;;;4935173;29;20951;-84
2023/07/25 08:54:35;;;;;;;1.10;1.00;;;18.20;97.30;;;;;;4916995;29;20452;-82
2023/07/25 08:57:02;;;;;;;2.80;1.47;;;18.20;97.30;;;;;;4924784;29;21093;-82
2023/07/25 08:59:27;;;;;;;7.17;1.77;;;18.20;97.30;;;;;;4911708;29;20437;-85
2023/07/25 09:01:53;;;;;;;2.03;1.37;;;18.20;97.30;;;;;;4934151;29;20493;-82
2023/07/25 09:04:24;;;;;;;1.10;1.03;;;18.20;97.30;;;;;;4917883;29;20240;-84
2023/07/25 09:06:49;;;;;;;3.73;2.23;;;18.20;97.30;;;;;;4917819;29;20480;-85
2023/07/25 09:09:15;;;;;;;1.77;1.50;;;18.20;97.30;;;;;;4911639;29;20421;-84
2023/07/25 09:11:41;;;;;;;2.53;1.70;;;18.20;97.30;;;;;;4933651;29;20207;-81
2023/07/25 09:14:07;;;;;;;2.77;1.60;;;18.20;97.30;;;;;;4920690;29;20521;-82
2023/07/25 09:16:33;;;;;;;1.57;1.33;;;18.30;97.30;;;;;;4918638;29;20479;-83
2023/07/25 09:18:59;;;;;;;1.43;1.33;;;18.30;97.30;;;;;;4917443;29;20259;-82
2023/07/25 09:21:24;;;;;;;1.83;1.73;;;18.40;97.30;;;;;;4912254;29;20535;-84
2023/07/25 09:23:52;;;;;;;1.43;1.33;;;18.40;97.30;;;;;;4918188;29;20180;-82
2023/07/25 09:26:21;;;;;;;1.70;1.60;;;18.40;97.30;;;;;;4917091;29;20703;-81
2023/07/25 09:28:51;;;;;;;1.43;1.33;;;18.50;97.30;;;;;;4932412;29;20413;-84
2023/07/25 09:31:19;;;;;;;1.40;1.30;;;18.50;97.30;;;;;;4916429;29;20531;-86
2023/07/25 09:33:50;;;;;;;1.27;1.23;;;18.50;97.30;;;;;;4932978;29;20529;-84
2023/07/25 09:36:18;;;;;;;2.00;1.90;;;18.60;97.30;;;;;;4913612;29;20698;-83
2023/07/25 09:38:50;;;;;;;1.63;1.53;;;18.60;97.30;;;;;;4913995;29;20437;-84
2023/07/25 09:41:19;;;;;;;1.67;1.60;;;18.70;97.30;;;;;;4925838;29;20473;-86
2023/07/25 09:43:45;;;;;;;1.10;1.10;;;18.70;97.30;;;;;;4907325;29;20439;-85
2023/07/25 09:46:11;;;;;;;2.20;1.80;;;18.70;97.30;;;;;;4909154;29;20835;-85
2023/07/25 09:48:36;;;;;;;1.30;1.20;;;18.80;97.30;;;;;;4915230;29;20200;-85
2023/07/25 09:51:03;;;;;;;3.97;1.53;;;18.80;97.30;;;;;;4917049;29;20445;-81
2023/07/25 09:53:29;;;;;;;1.47;1.33;;;18.90;97.30;;;;;;4921754;29;20180;-86
2023/07/25 09:55:55;;;;;;;9.10;1.27;;;18.90;97.30;;;;;;4899186;29;21349;-85
2023/07/25 09:58:21;;;;;;;8.20;2.60;;;18.90;97.30;;;;;;4913180;29;20417;-86
2023/07/25 10:00:48;;;;;;;2.73;1.80;;;19.00;97.30;;;;;;4904480;29;20473;-86
2023/07/25 10:03:14;;;;;;;2.33;1.70;;;19.10;97.30;;;;;;4899086;29;20580;-86
2023/07/25 10:05:45;;;;;;;3.50;2.07;;;19.10;97.30;;;;;;4908878;29;20468;-86
2023/07/25 10:08:18;;;;;;;7.50;1.53;;;19.10;97.30;;;;;;4905519;29;20427;-86
2023/07/25 10:10:43;;;;;;;3.00;2.80;;;19.20;97.30;;;;;;4909138;29;20459;-85
2023/07/25 10:13:10;;;;;;;2.50;1.83;;;19.30;97.30;;;;;;4902813;29;20422;-85
2023/07/25 10:15:36;;;;;;;2.23;2.07;;;19.30;97.30;;;;;;4909066;29;20275;-85
2023/07/25 10:18:03;;;;;;;2.20;1.60;;;19.40;97.30;;;;;;4909312;29;20444;-85
2023/07/25 10:20:29;;;;;;;2.20;1.90;;;19.40;97.30;;;;;;4895506;29;20912;-86
2023/07/25 10:23:06;;;;;;;2.80;1.73;;;19.50;96.80;;;;;;4909076;29;20521;-85
2023/07/25 10:25:32;;;;;;;1.73;1.67;;;19.50;97.20;;;;;;4908503;29;20207;-85
2023/07/25 10:27:58;;;;;;;1.77;1.60;;;19.60;97.30;;;;;;4911823;29;21002;-86
2023/07/25 10:30:25;;;;;;;1.60;1.47;;;19.60;97.30;;;;;;4907816;29;20173;-85
2023/07/25 10:32:54;;;;;;;2.97;1.47;;;19.60;97.30;;;;;;4897156;29;20413;-86
2023/07/25 10:35:42;;;;;;;1.73;1.67;;;19.60;97.00;;;;;;4916073;29;20432;-86
2023/07/25 10:38:09;;;;;;;1.20;1.10;;;19.70;96.70;;;;;;4893854;29;21011;-86
2023/07/25 10:40:58;;;;;;;1.07;0.97;;;19.70;96.50;;;;;;4905412;29;20505;-86
2023/07/25 10:43:49;;;;;;;1.27;1.03;;;19.70;95.80;;;;;;4902670;29;20422;-85
2023/07/25 10:46:16;;;;;;;1.87;1.43;;;19.70;95.10;;;;;;4905656;29;20909;-86
2023/07/25 10:49:09;;;;;;;1.07;0.97;;;19.70;95.50;;;;;;4904436;29;20828;-86
2023/07/25 10:51:52;;;;;;;2.10;1.47;;;19.80;95.50;;;;;;4897183;29;20508;-85
2023/07/25 10:54:20;;;;;;;4.00;2.13;;;19.80;95.20;;;;;;4893742;29;20545;-85
2023/07/25 10:57:17;;;;;;;1.17;1.07;;;19.80;94.80;;;;;;4895411;29;20417;-86
2023/07/25 10:59:59;;;;;;;1.20;1.10;;;19.90;95.00;;;;;;4912767;29;20483;-85
2023/07/25 11:02:31;;;;;;;3.17;2.10;;;19.90;94.80;;;;;;4915171;29;20476;-85
2023/07/25 11:05:14;;;;;;;1.87;1.77;;;19.90;95.30;;;;;;4905841;29;20819;-85
2023/07/25 11:07:40;;;;;;;1.57;1.47;;;19.90;94.80;;;;;;4912409;29;20424;-85
2023/07/25 11:10:07;;;;;;;1.97;1.80;;;19.90;94.50;;;;;;4915523;29;20512;-86
2023/07/25 11:12:33;;;;;;;1.57;1.57;;;19.90;94.30;;;;;;4910005;29;20197;-85
2023/07/25 11:15:00;;;;;;;1.63;1.27;;;19.80;94.30;;;;;;4918123;29;20468;-85
2023/07/25 11:17:29;;;;;;;0.97;0.93;;;19.80;93.90;;;;;;4924261;29;20189;-85
2023/07/25 11:20:10;;;;;;;1.67;1.30;;;19.80;93.70;;;;;;4909101;29;20428;-85
2023/07/25 11:22:36;;;;;;;1.20;1.10;;;19.80;93.70;;;;;;4923707;29;20441;-85
2023/07/25 11:25:06;;;;;;;6.57;1.50;;;19.70;93.60;;;;;;4930244;29;22944;-85
2023/07/25 11:27:31;;;;;;;2.37;2.10;;;19.70;93.70;;;;;;4930597;29;20183;-85
2023/07/25 11:30:16;;;;;;;1.40;1.30;;;19.70;93.20;;;;;;4926872;29;20421;-85
2023/07/25 11:32:53;;;;;;;1.63;1.43;;;19.70;93.20;;;;;;4912310;29;20622;-85
2023/07/25 11:35:20;;;;;;;1.20;1.10;;;19.70;93.20;;;;;;4914065;29;20422;-85
2023/07/25 11:37:46;;;;;;;1.37;1.27;;;19.70;93.40;;;;;;4917805;29;20846;-85
2023/07/25 11:40:15;;;;;;;1.50;1.40;;;19.70;93.60;;;;;;4908137;29;20425;-85
2023/07/25 11:42:46;;;;;;;19.17;2.70;;;19.70;93.90;;;;;;4907644;29;20983;-85
2023/07/25 11:45:13;;;;;;;1.63;1.10;;;19.80;93.90;;;;;;4907589;29;20456;-85
2023/07/25 11:47:40;;;;;;;2.43;2.10;;;19.80;94.20;;;;;;4914866;29;20421;-85
2023/07/25 11:50:07;;;;;;;1.33;1.23;;;19.90;94.10;;;;;;4911769;29;20803;-85
2023/07/25 11:52:33;;;;;;;1.10;1.00;;;19.90;93.40;;;;;;4906621;29;20460;-85
2023/07/25 11:55:00;;;;;;;2.23;1.83;;;19.90;92.90;;;;;;4904024;29;20434;-85
2023/07/25 11:57:26;;;;;;;1.47;1.37;;;19.90;92.70;;;;;;4896886;29;20221;-85
2023/07/25 11:59:55;;;;;;;1.87;1.77;;;19.90;92.40;;;;;;4911556;29;20468;-85
2023/07/25 12:02:24;;;;;;;1.87;1.20;;;19.90;92.80;;;;;;4910379;29;20244;-85
2023/07/25 12:04:50;;;;;;;1.57;1.27;;;19.90;92.60;;;;;;4911366;29;20484;-85
2023/07/25 12:07:16;;;;;;;1.10;1.10;;;19.90;92.50;;;;;;4907525;29;20413;-85
2023/07/25 12:09:52;;;;;;;2.07;1.30;;;19.90;92.30;;;;;;4900809;29;20840;-85
2023/07/25 12:12:19;;;;;;;0.90;0.80;;;19.90;92.60;;;;;;4903166;29;20206;-85
2023/07/25 12:14:59;;;;;;;3.13;1.50;;;19.90;93.10;;;;;;4907827;29;20465;-85
2023/07/25 12:17:41;;;;;;;1.13;1.00;;;19.90;92.70;;;;;;4903284;29;20425;-86
2023/07/25 12:20:18;;;;;;;2.93;1.73;;;19.90;92.50;;;;;;4910948;29;20424;-85
2023/07/25 12:22:44;;;;;;;1.50;1.40;;;19.80;92.80;;;;;;4904056;29;20443;-86
2023/07/25 12:25:10;;;;;;;1.33;1.23;;;19.80;93.40;;;;;;4914886;29;20966;-85
2023/07/25 12:27:44;;;;;;;12.00;1.80;;;19.80;93.60;;;;;;4915522;29;20431;-86
2023/07/25 12:30:10;;;;;;;3.87;2.43;;;19.80;94.40;;;;;;4910845;29;20770;-86
2023/07/25 12:32:35;;;;;;;2.00;1.47;;;19.80;94.70;;;;;;4909195;29;20452;-86
2023/07/25 12:35:01;;;;;;;63.03;2.07;;;19.80;94.40;;;;;;4914113;29;20188;-86
2023/07/25 12:37:27;;;;;;;1.90;1.43;;;19.80;95.10;;;;;;4907879;29;20193;-86
2023/07/25 12:39:52;;;;;;;1.10;1.10;;;19.80;95.80;;;;;;4910705;29;20448;-86
2023/07/25 12:42:18;;;;;;;3.27;2.63;;;19.80;95.30;;;;;;4914156;29;20207;-86
2023/07/25 12:44:43;;;;;;;2.67;1.30;;;19.80;94.60;;;;;;4913662;29;20684;-86
2023/07/25 12:47:09;;;;;;;1.67;1.57;;;19.80;94.90;;;;;;4910105;29;20656;-86
2023/07/25 12:49:34;;;;;;;1.67;1.30;;;19.80;95.60;;;;;;4908594;29;20176;-87
2023/07/25 12:52:00;;;;;;;1.10;1.00;;;19.80;96.00;;;;;;4913128;29;20295;-85
2023/07/25 12:54:26;;;;;;;1.47;1.40;;;19.80;95.80;;;;;;4916797;29;20219;-86
2023/07/25 12:56:51;;;;;;;1.10;1.00;;;19.80;95.50;;;;;;4909759;29;20196;-86
2023/07/25 12:59:17;;;;;;;1.17;1.07;;;19.80;95.20;;;;;;4906088;29;20195;-86
2023/07/25 13:01:42;;;;;;;1.30;1.10;;;19.80;95.30;;;;;;4909589;29;20256;-86
2023/07/25 13:04:08;;;;;;;3.27;3.03;;;19.80;95.20;;;;;;4912491;29;20240;-86
2023/07/25 13:06:34;;;;;;;1.30;1.20;;;19.80;94.50;;;;;;4914757;29;20195;-86
2023/07/25 13:09:00;;;;;;;1.20;1.10;;;19.80;94.50;;;;;;4913251;29;20184;-86
2023/07/25 13:11:26;;;;;;;1.87;1.43;;;19.80;93.60;;;;;;4913087;29;20460;-86
2023/07/25 13:13:52;;;;;;;1.30;1.20;;;19.80;92.90;;;;;;4912985;29;20184;-86
2023/07/25 13:16:17;;;;;;;6.20;1.73;;;19.80;92.90;;;;;;4899292;29;20220;-86
2023/07/25 13:18:43;;;;;;;1.37;1.30;;;19.80;92.70;;;;;;4909953;29;20563;-86
2023/07/25 13:21:08;;;;;;;1.77;1.67;;;19.80;93.40;;;;;;4903259;29;20247;-85
2023/07/25 13:23:34;;;;;;;1.10;1.07;;;19.80;92.90;;;;;;4906975;29;20279;-86
2023/07/25 13:25:59;;;;;;;2.20;0.97;;;19.80;92.60;;;;;;4905303;29;20205;-86
2023/07/25 13:28:25;;;;;;;1.53;1.43;;;19.90;92.60;;;;;;4910090;29;20710;-86
2023/07/25 13:30:50;;;;;;;4.87;2.40;;;19.90;91.60;;;;;;4909895;29;20361;-85
2023/07/25 13:33:16;;;;;;;1.53;1.43;;;19.80;91.30;;;;;;4902733;29;20287;-87
2023/07/25 13:35:41;;;;;;;0.97;0.87;;;19.80;91.70;;;;;;4918249;29;20184;-86
2023/07/25 13:38:07;;;;;;;4.90;2.40;;;19.80;91.80;;;;;;4907026;29;20185;-86
2023/07/25 13:40:33;;;;;;;1.63;1.53;;;19.80;92.10;;;;;;4909506;29;20183;-87
2023/07/25 13:42:58;;;;;;;2.60;1.70;;;19.80;91.30;;;;;;4894482;29;20565;-86
2023/07/25 13:45:25;;;;;;;0.80;0.80;;;19.70;91.30;;;;;;4905686;29;20227;-87
2023/07/25 13:47:50;;;;;;;2.50;1.33;;;19.70;91.30;;;;;;4912109;29;20185;-87
2023/07/25 13:50:16;;;;;;;1.63;1.53;;;19.80;91.90;;;;;;4902673;29;20425;-87
2023/07/25 13:52:41;;;;;;;1.53;1.47;;;19.70;91.30;;;;;;4907950;29;20357;-86
2023/07/25 13:55:07;;;;;;;1.90;1.37;;;19.70;91.20;;;;;;4910752;29;20256;-87
2023/07/25 13:57:33;;;;;;;2.43;1.50;;;19.70;91.50;;;;;;4909404;29;20308;-87
2023/07/25 13:59:58;;;;;;;1.10;1.03;;;19.70;91.30;;;;;;4909632;29;20189;-86
2023/07/25 14:02:24;;;;;;;1.30;1.27;;;19.70;91.40;;;;;;4908632;29;20244;-87
2023/07/25 14:04:49;;;;;;;1.47;1.43;;;19.60;91.90;;;;;;4909888;29;20220;-86
2023/07/25 14:07:15;;;;;;;1.73;1.70;;;19.60;92.30;;;;;;4928024;29;20203;-86
2023/07/25 14:09:40;;;;;;;1.57;1.47;;;19.60;92.40;;;;;;4912541;29;20180;-86
2023/07/25 14:12:06;;;;;;;0.90;0.80;;;19.60;92.50;;;;;;4927670;29;20229;-87
2023/07/25 14:14:32;;;;;;;2.13;1.47;;;19.60;92.80;;;;;;4927716;29;20188;-86
2023/07/25 14:17:00;;;;;;;11.00;2.80;;;19.60;92.70;;;;;;4912121;29;20440;-87
2023/07/25 14:19:26;;;;;;;1.60;1.50;;;19.60;93.10;;;;;;4913150;29;20263;-87
2023/07/25 14:21:52;;;;;;;1.13;1.03;;;19.60;92.60;;;;;;4909610;29;20524;-86
2023/07/25 14:24:19;;;;;;;2.30;2.10;;;19.60;93.60;;;;;;4911267;29;20734;-86
2023/07/25 14:26:45;;;;;;;1.10;1.07;;;19.60;91.90;;;;;;4909089;29;20224;-87
2023/07/25 14:29:10;;;;;;;1.50;1.40;;;19.50;92.20;;;;;;4911029;29;20444;-86
2023/07/25 14:31:36;;;;;;;2.60;2.00;;;19.40;92.50;;;;;;4928002;29;20235;-86
2023/07/25 14:34:03;;;;;;;3.10;1.53;;;19.40;93.60;;;;;;4913042;29;20604;-86
2023/07/25 14:36:28;;;;;;;1.27;1.17;;;19.30;94.20;;;;;;4912984;29;20190;-86
2023/07/25 14:38:54;;;;;;;1.57;1.50;;;19.30;95.00;;;;;;4912120;29;20970;-86
2023/07/25 14:41:20;;;;;;;13.33;2.23;;;19.20;95.80;;;;;;4915827;29;20243;-86
2023/07/25 14:43:45;;;;;;;7.23;2.00;;;19.10;96.30;;;;;;4912611;29;20211;-85
2023/07/25 14:46:11;;;;;;;2.77;1.67;;;19.10;97.20;;;;;;4915419;29;20295;-86
2023/07/25 14:48:37;;;;;;;1.47;1.23;;;19.10;97.30;;;;;;4915731;29;20182;-85
2023/07/25 14:51:02;;;;;;;3.63;2.20;;;19.00;97.30;;;;;;4912940;29;20213;-86
2023/07/25 14:53:30;;;;;;;1.43;1.33;;;19.00;97.30;;;;;;4915311;29;20204;-86
2023/07/25 14:55:55;;;;;;;1.83;1.63;;;18.90;97.30;;;;;;4930519;29;20200;-87
2023/07/25 14:58:21;;;;;;;1.63;1.53;;;18.90;97.30;;;;;;4909755;29;20429;-87
2023/07/25 15:00:47;;;;;;;1.50;1.40;;;18.90;97.30;;;;;;4915370;29;20279;-87
2023/07/25 15:03:12;;;;;;;8.03;1.57;;;18.90;97.30;;;;;;4930998;29;20184;-86
2023/07/25 15:05:38;;;;;;;1.33;1.23;;;18.90;97.30;;;;;;4915221;29;20730;-87
2023/07/25 15:08:04;;;;;;;1.33;1.30;;;18.80;97.30;;;;;;4914910;29;20315;-87
2023/07/25 15:10:29;;;;;;;3.77;1.63;;;18.80;97.30;;;;;;4915500;29;20177;-87
2023/07/25 15:12:55;;;;;;;1.10;1.00;;;18.80;97.30;;;;;;4915553;29;20287;-87
2023/07/25 15:15:20;;;;;;;1.23;1.13;;;18.80;97.30;;;;;;4915189;29;20185;-87
2023/07/25 15:17:46;;;;;;;1.30;1.20;;;18.80;97.30;;;;;;4915466;29;20189;-87
2023/07/25 15:20:11;;;;;;;3.07;1.63;;;18.80;97.30;;;;;;4915279;29;20188;-86
2023/07/25 15:22:37;;;;;;;1.70;1.10;;;18.80;97.30;;;;;;4926483;29;20229;-86
2023/07/25 15:25:03;;;;;;;4.93;2.20;;;18.80;97.30;;;;;;4898025;29;20251;-87
2023/07/25 15:27:29;;;;;;;1.50;1.40;;;18.80;97.30;;;;;;4903763;29;20461;-86
2023/07/25 15:29:55;;;;;;;2.10;1.80;;;18.80;97.30;;;;;;4908145;29;20187;-87
2023/07/25 15:32:21;;;;;;;1.37;1.27;;;18.70;96.80;;;;;;4906688;29;20697;-86
2023/07/25 15:34:46;;;;;;;1.23;1.20;;;18.70;96.10;;;;;;4914936;29;20527;-86
2023/07/25 15:37:12;;;;;;;1.47;1.23;;;18.70;95.60;;;;;;4912778;29;20188;-86
2023/07/25 15:39:38;;;;;;;3.73;1.87;;;18.60;94.70;;;;;;4905541;29;20613;-86
2023/07/25 15:42:04;;;;;;;1.50;1.20;;;18.60;93.90;;;;;;4927557;29;20448;-87
2023/07/25 15:44:29;;;;;;;1.00;0.90;;;18.50;93.20;;;;;;4907501;29;20208;-87
2023/07/25 15:46:58;;;;;;;1.20;1.10;;;18.50;93.60;;;;;;4901331;29;20565;-87
2023/07/25 15:49:23;;;;;;;1.97;1.17;;;18.50;94.00;;;;;;4911581;29;20225;-86
2023/07/25 15:51:50;;;;;;;3.20;1.23;;;18.50;94.20;;;;;;4925678;29;20444;-86
2023/07/25 15:54:16;;;;;;;1.40;1.30;;;18.50;94.50;;;;;;4911772;29;20234;-86
2023/07/25 15:56:42;;;;;;;1.37;1.27;;;18.50;94.80;;;;;;4908821;29;20425;-87
2023/07/25 15:59:10;;;;;;;1.10;1.00;;;18.50;95.50;;;;;;4907600;29;20805;-86
2023/07/25 16:01:37;;;;;;;1.20;1.10;;;18.60;96.00;;;;;;4903971;29;20469;-87
2023/07/25 16:04:03;;;;;;;1.00;0.90;;;18.60;96.20;;;;;;4895970;29;20821;-86
2023/07/25 16:06:28;;;;;;;1.10;1.00;;;18.60;96.70;;;;;;4914264;29;20467;-86
2023/07/25 16:08:55;;;;;;;1.30;1.20;;;18.60;96.60;;;;;;4901575;29;20177;-86
2023/07/25 16:11:20;;;;;;;1.60;1.27;;;18.50;96.90;;;;;;4911050;29;20208;-86
2023/07/25 16:13:48;;;;;;;1.13;1.07;;;18.50;97.30;;;;;;4909314;29;20428;-86
2023/07/25 16:16:14;;;;;;;4.33;2.63;;;18.50;97.30;;;;;;4914013;29;20196;-86
2023/07/25 16:18:40;;;;;;;3.47;2.23;;;18.40;97.30;;;;;;4911683;29;20433;-86
2023/07/25 16:21:07;;;;;;;1.70;1.60;;;18.40;97.30;;;;;;4902040;29;20528;-86
2023/07/25 16:23:32;;;;;;;2.50;1.83;;;18.30;97.30;;;;;;4969703;23;20517;-83
2023/07/25 16:25:58;;;;;;;1.77;1.67;;;18.20;97.30;;;;;;4970798;28;20497;-84
2023/07/25 16:28:23;;;;;;;2.40;1.57;;;18.10;97.30;;;;;;4971721;28;20177;-84
2023/07/25 16:30:50;;;;;;;1.50;1.50;;;18.00;97.30;;;;;;4971998;28;20222;-84
2023/07/25 16:33:15;;;;;;;3.63;2.10;;;18.00;97.30;;;;;;4960312;28;20234;-83
2023/07/25 16:35:41;;;;;;;0.77;0.73;;;17.90;97.30;;;;;;4953162;28;20455;-84
2023/07/25 16:38:07;;;;;;;1.77;1.67;;;17.90;97.30;;;;;;4951965;28;20202;-85
2023/07/25 16:40:32;;;;;;;4.00;2.57;;;17.90;97.30;;;;;;4951328;28;20187;-85
2023/07/25 16:42:58;;;;;;;1.30;1.20;;;17.80;97.30;;;;;;4953183;28;20214;-85
2023/07/25 16:45:23;;;;;;;2.60;2.03;;;17.80;97.30;;;;;;4953583;28;20265;-84
2023/07/25 16:47:49;;;;;;;1.60;1.50;;;17.80;97.30;;;;;;4952780;28;20218;-86
2023/07/25 16:50:14;;;;;;;1.87;1.73;;;17.80;97.30;;;;;;4953266;28;20230;-87
2023/07/25 16:52:40;;;;;;;1.87;1.77;;;17.70;97.30;;;;;;4952805;28;20306;-86
2023/07/25 16:55:06;;;;;;;2.53;2.33;;;17.70;97.30;;;;;;4954553;28;20194;-88
2023/07/25 16:57:31;;;;;;;1.53;1.50;;;17.60;97.30;;;;;;4952853;28;20191;-88
2023/07/25 16:59:57;;;;;;;1.30;1.20;;;17.60;97.30;;;;;;4951855;28;20433;-88
2023/07/25 17:02:23;;;;;;;1.50;1.40;;;17.60;97.30;;;;;;4952002;28;20207;-87